Time;durP1;ratioP1;P1;durP2;ratioP2;P2;SDS_P1;SDS_P2;PMS_P1;PMS_P2;Temp;Humidity;BMP_temperature;BMP_pressure;BME280_temperature;BME280_humidity;BME280_pressure;Samples;Min_cycle;Max_cycle;Signal;HPM_P1;HPM_P2
2023/12/05 00:00:24;;;;;;;16.15;8.52;;;;;;;-2.28;84.55;101509.81;5090789;28;20115;-69
2023/12/05 00:02:49;;;;;;;13.90;7.60;;;;;;;-2.28;85.33;101519.53;5073190;28;20036;-68
2023/12/05 00:05:15;;;;;;;18.40;8.60;;;;;;;-2.18;84.59;101518.84;5072893;28;20039;-69
2023/12/05 00:07:42;;;;;;;15.82;8.43;;;;;;;-2.18;84.61;101516.19;5089601;28;20012;-69
2023/12/05 00:10:08;;;;;;;15.65;8.90;;;;;;;-2.04;84.53;101533.75;5090046;28;20441;-68
2023/12/05 00:12:34;;;;;;;16.02;8.80;;;;;;;-2.00;83.94;101523.84;5090598;28;20035;-69
2023/12/05 00:14:59;;;;;;;15.15;8.20;;;;;;;-2.20;84.66;101520.72;5089778;28;20031;-69
2023/12/05 00:17:24;;;;;;;14.93;8.10;;;;;;;-2.49;87.37;101527.84;5090884;28;20032;-68
2023/12/05 00:19:50;;;;;;;13.73;8.35;;;;;;;-2.29;86.76;101523.94;5089425;28;20040;-68
2023/12/05 00:22:15;;;;;;;14.98;8.40;;;;;;;-2.47;88.00;101522.47;5055996;28;20441;-69
2023/12/05 00:24:40;;;;;;;16.45;8.13;;;;;;;-2.39;87.57;101518.41;5091265;28;20035;-69
2023/12/05 00:27:06;;;;;;;16.13;8.90;;;;;;;-2.18;85.59;101516.19;5089847;28;20036;-69
2023/12/05 00:29:31;;;;;;;18.05;8.73;;;;;;;-2.49;86.71;101522.56;5091338;28;20032;-68
2023/12/05 00:31:56;;;;;;;14.45;8.45;;;;;;;-2.40;86.21;101510.59;5090942;28;20036;-68
2023/12/05 00:34:22;;;;;;;15.68;8.40;;;;;;;-2.48;85.91;101518.16;5091055;28;20047;-68
2023/12/05 00:36:48;;;;;;;15.30;8.50;;;;;;;-2.35;86.27;101521.72;5090181;28;20055;-69
2023/12/05 00:39:14;;;;;;;18.98;9.15;;;;;;;-2.50;86.20;101518.25;5090479;28;20061;-68
2023/12/05 00:41:39;;;;;;;21.30;8.55;;;;;;;-2.37;86.15;101513.88;5090990;28;20036;-69
2023/12/05 00:44:05;;;;;;;17.83;8.23;;;;;;;-2.44;85.88;101520.50;5089428;28;20130;-69
2023/12/05 00:46:30;;;;;;;21.52;9.02;;;;;;;-2.46;85.45;101517.09;5088914;28;20063;-69
2023/12/05 00:48:56;;;;;;;19.08;9.52;;;;;;;-2.59;85.58;101495.13;5090769;28;20026;-68
2023/12/05 00:51:21;;;;;;;24.55;10.00;;;;;;;-2.42;84.92;101520.38;5088982;28;20028;-69
2023/12/05 00:53:47;;;;;;;21.02;9.45;;;;;;;-2.29;84.12;101513.38;5090571;28;20032;-69
2023/12/05 00:56:14;;;;;;;18.98;7.47;;;;;;;-2.75;85.04;101513.66;5090639;28;20031;-68
2023/12/05 00:58:40;;;;;;;23.55;9.73;;;;;;;-2.73;85.40;101479.34;5088462;28;20056;-69
2023/12/05 01:01:07;;;;;;;19.42;9.55;;;;;;;-2.54;85.17;101508.00;5090368;28;20055;-68
2023/12/05 01:03:33;;;;;;;18.60;9.55;;;;;;;-2.64;86.05;101510.38;5090261;28;20032;-68
2023/12/05 01:05:58;;;;;;;19.55;9.18;;;;;;;-2.50;85.99;101520.03;5088893;28;20027;-68
2023/12/05 01:08:23;;;;;;;21.33;8.93;;;;;;;-2.35;84.60;101516.44;5090347;28;20479;-68
2023/12/05 01:10:49;;;;;;;21.88;9.35;;;;;;;-2.41;84.11;101524.72;5090742;28;20486;-68
2023/12/05 01:13:14;;;;;;;23.10;10.05;;;;;;;-2.66;84.86;101522.78;5089223;28;20466;-68
2023/12/05 01:15:39;;;;;;;22.13;8.75;;;;;;;-2.48;84.44;101526.91;5090424;28;20070;-69
2023/12/05 01:18:05;;;;;;;19.27;8.70;;;;;;;-2.50;84.69;101526.16;5090482;28;20025;-69
2023/12/05 01:20:30;;;;;;;20.05;9.15;;;;;;;-2.54;84.55;101527.28;5090438;28;20114;-68
2023/12/05 01:22:56;;;;;;;25.33;9.32;;;;;;;-2.65;84.91;101511.28;5090739;28;20402;-68
2023/12/05 01:25:21;;;;;;;21.23;9.40;;;;;;;-2.55;84.89;101506.31;5088459;28;20040;-68
2023/12/05 01:27:47;;;;;;;22.25;9.63;;;;;;;-2.45;84.46;101521.44;5072338;28;20114;-68
2023/12/05 01:30:13;;;;;;;19.35;9.70;;;;;;;-2.27;83.18;101513.31;5090811;28;20028;-68
2023/12/05 01:32:38;;;;;;;19.65;8.52;;;;;;;-2.44;82.68;101523.13;5088279;28;20735;-68
2023/12/05 01:35:04;;;;;;;23.55;9.43;;;;;;;-2.22;82.50;101522.63;5072117;28;20612;-68
2023/12/05 01:37:29;;;;;;;18.98;9.15;;;;;;;-2.24;82.25;101519.22;5088324;28;20024;-68
2023/12/05 01:39:55;;;;;;;26.40;9.48;;;;;;;-2.26;82.25;101520.25;5088316;28;20032;-68
2023/12/05 01:42:20;;;;;;;18.23;8.80;;;;;;;-2.27;81.41;101521.22;5089906;28;20059;-68
2023/12/05 01:44:45;;;;;;;17.92;8.95;;;;;;;-2.31;81.71;101527.63;5090228;28;20118;-68
2023/12/05 01:47:13;;;;;;;25.95;9.90;;;;;;;-2.36;81.48;101530.53;5088282;28;20032;-69
2023/12/05 01:49:40;;;;;;;22.67;8.77;;;;;;;-2.49;82.04;101529.63;5089718;28;20028;-68
2023/12/05 01:52:06;;;;;;;25.35;10.20;;;;;;;-2.58;82.25;101525.81;5092160;28;20046;-69
2023/12/05 01:54:32;;;;;;;14.65;8.48;;;;;;;-2.55;82.74;101527.38;5092427;28;20024;-69
2023/12/05 01:56:59;;;;;;;19.55;9.60;;;;;;;-2.67;82.98;101529.00;5092532;28;20028;-68
2023/12/05 01:59:26;;;;;;;25.52;9.27;;;;;;;-2.66;83.38;101530.69;5093191;28;20040;-68
2023/12/05 02:01:52;;;;;;;21.92;9.00;;;;;;;-2.69;83.39;101523.81;5093784;28;20031;-69
2023/12/05 02:04:18;;;;;;;19.90;9.30;;;;;;;-2.60;83.10;101527.69;5093690;28;20387;-68
2023/12/05 02:06:45;;;;;;;16.08;8.55;;;;;;;-2.79;83.75;101512.16;5092162;28;20028;-68
2023/12/05 02:09:13;;;;;;;19.10;9.20;;;;;;;-2.70;84.41;101526.56;5092587;28;20035;-68
2023/12/05 02:11:41;;;;;;;18.75;8.80;;;;;;;-2.70;84.45;101524.78;5093310;28;20050;-67
2023/12/05 02:14:07;;;;;;;19.90;9.38;;;;;;;-2.90;85.30;101528.63;5092219;28;20023;-69
2023/12/05 02:16:51;;;;;;;18.08;9.52;;;;;;;-2.86;85.73;101519.59;5075336;28;20017;-68
2023/12/05 02:19:16;;;;;;;24.58;9.90;;;;;;;-2.79;86.01;101516.59;5093252;28;20031;-68
2023/12/05 02:21:46;;;;;;;20.00;9.20;;;;;;;-2.91;86.15;101513.78;5092169;28;20032;-68
2023/12/05 02:24:25;;;;;;;26.20;8.48;;;;;;;-2.85;86.37;101518.69;5092421;28;20486;-68
2023/12/05 02:26:50;;;;;;;20.00;9.88;;;;;;;-2.73;86.59;101513.59;5092181;28;20032;-69
2023/12/05 02:29:15;;;;;;;24.30;9.70;;;;;;;-2.80;86.04;101514.91;5093174;28;20117;-68
2023/12/05 02:31:41;;;;;;;25.85;9.52;;;;;;;-2.86;85.85;101501.16;5091792;28;20024;-68
2023/12/05 02:34:06;;;;;;;18.42;9.57;;;;;;;-2.75;85.82;101515.47;5093132;28;20028;-68
2023/12/05 02:37:24;;;;;;;20.00;9.35;;;;;;;-2.83;86.39;101508.03;5093190;28;20539;-69
2023/12/05 02:40:15;;;;;;;19.45;9.30;;;;;;;-2.95;86.74;101511.41;5073613;28;20131;-68
2023/12/05 02:42:42;;;;;;;19.40;8.88;;;;;;;-2.78;86.42;101511.25;5092779;28;20055;-69
2023/12/05 02:45:18;;;;;;;16.92;8.57;;;;;;;-2.91;86.93;101503.25;5092715;28;20074;-69
2023/12/05 02:47:47;;;;;;;17.17;8.57;;;;;;;-2.96;86.65;101481.63;5093068;28;20027;-68
2023/12/05 02:50:13;;;;;;;20.52;8.75;;;;;;;-2.79;87.43;101493.72;5092233;28;20036;-68
2023/12/05 02:52:38;;;;;;;17.42;8.45;;;;;;;-2.69;86.04;101504.53;5092799;28;20028;-69
2023/12/05 02:55:04;;;;;;;20.00;8.45;;;;;;;-2.72;86.04;101500.31;5092931;28;20032;-68
2023/12/05 02:57:29;;;;;;;18.95;8.63;;;;;;;-2.63;85.46;101496.25;5092295;28;20020;-68
2023/12/05 02:59:55;;;;;;;16.42;8.07;;;;;;;-2.74;85.88;101496.09;5092321;28;20062;-68
2023/12/05 03:02:20;;;;;;;17.33;8.10;;;;;;;-2.56;84.74;101496.72;5091203;28;20032;-68
2023/12/05 03:04:45;;;;;;;19.40;8.73;;;;;;;-2.68;85.18;101503.59;5092453;28;20047;-69
2023/12/05 03:07:11;;;;;;;13.95;8.07;;;;;;;-2.64;85.16;101499.84;5092931;28;20032;-68
2023/12/05 03:09:37;;;;;;;14.82;8.18;;;;;;;-2.99;85.20;101476.53;5091999;28;20030;-69
2023/12/05 03:12:03;;;;;;;16.13;9.73;;;;;;;-2.71;84.83;101496.75;5092012;28;20106;-68
2023/12/05 03:14:28;;;;;;;18.85;8.50;;;;;;;-2.86;85.00;101490.63;5092614;28;20046;-69
2023/12/05 03:16:54;;;;;;;15.75;8.20;;;;;;;-3.00;85.46;101490.66;5092452;28;20032;-69
2023/12/05 03:19:19;;;;;;;17.20;8.40;;;;;;;-2.86;84.58;101488.00;5088797;28;20455;-69
2023/12/05 03:21:45;;;;;;;13.98;7.43;;;;;;;-2.88;84.46;101489.03;5088852;28;20089;-68
2023/12/05 03:24:10;;;;;;;16.52;8.13;;;;;;;-2.96;84.45;101492.16;5089823;28;20028;-68
2023/12/05 03:26:36;;;;;;;14.88;7.75;;;;;;;-2.97;84.54;101485.19;5090881;28;20194;-69
2023/12/05 03:29:01;;;;;;;12.98;7.50;;;;;;;-2.91;83.60;101492.72;5090923;28;20028;-68
2023/12/05 03:31:27;;;;;;;15.75;7.47;;;;;;;-2.92;84.05;101495.44;5091643;28;20028;-68
2023/12/05 03:33:53;;;;;;;17.55;7.70;;;;;;;-3.00;83.47;101493.28;5090675;28;20047;-68
2023/12/05 03:36:18;;;;;;;13.77;7.80;;;;;;;-3.23;83.77;101475.44;5091552;28;20028;-68
2023/12/05 03:38:43;;;;;;;14.68;7.80;;;;;;;-3.05;83.54;101491.88;5091536;28;20110;-69
2023/12/05 03:41:09;;;;;;;15.77;7.75;;;;;;;-3.24;84.10;101493.00;5089750;28;20039;-69
2023/12/05 03:43:35;;;;;;;15.23;7.25;;;;;;;-3.34;84.58;101478.72;5089849;28;20077;-68
2023/12/05 03:46:00;;;;;;;15.73;7.60;;;;;;;-3.28;84.32;101465.16;5091281;28;20078;-68
2023/12/05 03:48:26;;;;;;;14.60;8.02;;;;;;;-3.13;83.35;101495.81;5090930;28;20051;-68
2023/12/05 03:50:54;;;;;;;12.93;7.13;;;;;;;-3.05;83.42;101497.97;5089934;28;20039;-69
2023/12/05 03:53:19;;;;;;;14.23;7.20;;;;;;;-3.18;82.87;101481.25;5091539;28;20027;-68
2023/12/05 03:55:45;;;;;;;13.88;7.28;;;;;;;-3.33;83.09;101485.66;5090701;28;20679;-68
2023/12/05 03:58:10;;;;;;;12.73;6.78;;;;;;;-3.42;83.20;101484.44;5091164;28;20081;-67
2023/12/05 04:00:35;;;;;;;15.07;7.75;;;;;;;-3.42;83.01;101488.84;5089654;28;20505;-68
2023/12/05 04:03:01;;;;;;;15.60;7.90;;;;;;;-3.68;83.29;101461.47;5091026;28;20020;-68
2023/12/05 04:05:26;;;;;;;13.35;7.60;;;;;;;-3.45;83.69;101489.03;5090713;28;20398;-68
2023/12/05 04:07:52;;;;;;;13.15;6.95;;;;;;;-3.59;84.01;101492.50;5090925;28;20035;-68
2023/12/05 04:10:17;;;;;;;13.45;7.30;;;;;;;-3.56;84.03;101487.03;5090089;28;20036;-68
2023/12/05 04:12:42;;;;;;;12.80;6.97;;;;;;;-3.51;83.81;101494.66;5089790;28;20685;-67
2023/12/05 04:15:08;;;;;;;13.32;7.15;;;;;;;-3.51;84.01;101495.50;5091076;28;20052;-68
2023/12/05 04:17:34;;;;;;;15.30;6.88;;;;;;;-3.58;84.21;101497.66;5089903;28;20032;-68
2023/12/05 04:20:00;;;;;;;11.77;6.40;;;;;;;-3.69;84.58;101488.72;5091298;28;20066;-68
2023/12/05 04:22:26;;;;;;;12.32;7.07;;;;;;;-3.66;85.10;101499.91;5089791;28;20072;-68
2023/12/05 04:24:51;;;;;;;13.35;7.20;;;;;;;-3.67;85.33;101494.75;5090581;28;20395;-68
2023/12/05 04:27:17;;;;;;;12.18;7.20;;;;;;;-3.78;85.45;101497.97;5091113;28;20050;-68
2023/12/05 04:29:42;;;;;;;14.25;7.60;;;;;;;-3.67;86.02;101500.84;5089402;28;20020;-68
2023/12/05 04:32:08;;;;;;;12.88;6.68;;;;;;;-3.83;85.90;101495.63;5090517;28;20052;-69
2023/12/05 04:34:37;;;;;;;13.27;6.70;;;;;;;-3.89;85.82;101477.56;5071829;28;20036;-68
2023/12/05 04:37:02;;;;;;;12.55;6.60;;;;;;;-3.89;85.95;101500.41;5088948;28;20403;-67
2023/12/05 04:39:27;;;;;;;13.40;6.72;;;;;;;-3.83;84.82;101493.00;5070084;28;20051;-68
2023/12/05 04:41:53;;;;;;;12.77;6.28;;;;;;;-3.79;84.53;101498.91;5089799;28;20044;-67
2023/12/05 04:44:18;;;;;;;12.27;6.70;;;;;;;-3.62;83.82;101500.56;5089113;28;20031;-68
2023/12/05 04:46:44;;;;;;;11.20;6.35;;;;;;;-3.56;83.25;101502.81;5089012;28;20105;-68
2023/12/05 04:49:09;;;;;;;10.68;6.07;;;;;;;-3.57;83.34;101501.16;5089337;28;20173;-68
2023/12/05 04:51:34;;;;;;;12.80;6.65;;;;;;;-3.33;82.19;101499.66;5089268;28;20031;-68
2023/12/05 04:54:00;;;;;;;11.38;6.32;;;;;;;-3.44;82.03;101496.84;5089514;28;20028;-68
2023/12/05 04:56:26;;;;;;;13.85;6.32;;;;;;;-3.41;82.27;101496.66;5090653;28;20023;-68
2023/12/05 04:58:52;;;;;;;13.95;6.35;;;;;;;-3.68;82.84;101493.03;5090323;28;20083;-68
2023/12/05 05:01:17;;;;;;;12.05;6.20;;;;;;;-3.91;83.47;101461.03;5068714;28;20055;-69
2023/12/05 05:03:43;;;;;;;12.52;6.53;;;;;;;-3.68;83.62;101500.91;5070489;28;20078;-68
2023/12/05 05:06:09;;;;;;;12.80;6.80;;;;;;;-3.72;84.34;101495.00;5070181;28;20513;-68
2023/12/05 05:08:34;;;;;;;10.60;5.88;;;;;;;-3.72;84.25;101494.16;5069111;28;20467;-66
2023/12/05 05:10:59;;;;;;;12.38;6.30;;;;;;;-3.74;84.33;101489.00;5070274;28;20032;-67
2023/12/05 05:13:25;;;;;;;13.77;7.07;;;;;;;-3.85;85.23;101489.59;5068486;28;20028;-68
2023/12/05 05:15:50;;;;;;;12.18;6.38;;;;;;;-3.89;85.27;101497.75;5069852;28;20032;-68
2023/12/05 05:18:15;;;;;;;11.52;6.05;;;;;;;-3.84;85.09;101496.56;5069897;28;20033;-70
2023/12/05 05:20:41;;;;;;;10.40;6.18;;;;;;;-3.64;84.84;101505.06;5068554;28;20043;-69
2023/12/05 05:23:06;;;;;;;13.70;6.05;;;;;;;-3.71;84.98;101487.94;5068622;28;20029;-71
2023/12/05 05:25:32;;;;;;;13.25;6.07;;;;;;;-3.56;83.77;101508.09;5068766;28;20116;-69
2023/12/05 05:27:57;;;;;;;12.60;6.53;;;;;;;-3.61;84.93;101496.97;5074112;28;20578;-71
2023/12/05 05:30:23;;;;;;;11.40;6.30;;;;;;;-3.78;85.61;101505.88;5082697;28;20032;-67
2023/12/05 05:32:48;;;;;;;10.98;5.88;;;;;;;-3.86;86.70;101501.06;5094215;28;20035;-66
2023/12/05 05:35:13;;;;;;;13.27;6.72;;;;;;;-3.72;87.89;101502.88;5094186;28;20103;-67
2023/12/05 05:37:39;;;;;;;16.92;7.10;;;;;;;-3.81;89.70;101512.16;5093470;28;20032;-68
2023/12/05 05:40:07;;;;;;;13.13;6.95;;;;;;;-3.85;89.12;101486.13;5093981;28;20035;-67
2023/12/05 05:42:32;;;;;;;15.40;6.97;;;;;;;-3.42;87.96;101525.69;5093723;28;20032;-67
2023/12/05 05:44:58;;;;;;;13.90;7.35;;;;;;;-3.50;86.49;101470.91;5092763;28;20028;-66
2023/12/05 05:47:24;;;;;;;13.30;6.95;;;;;;;-3.29;85.65;101512.66;5093747;28;20073;-66
2023/12/05 05:49:49;;;;;;;16.63;7.38;;;;;;;-3.05;85.10;101513.78;5092779;28;20135;-66
2023/12/05 05:52:15;;;;;;;18.17;7.95;;;;;;;-3.40;86.14;101508.03;5093308;28;20534;-66
2023/12/05 05:54:40;;;;;;;16.45;7.65;;;;;;;-3.51;87.23;101506.00;5093697;28;20556;-66
2023/12/05 05:57:05;;;;;;;16.88;7.38;;;;;;;-3.43;86.67;101509.06;5093748;28;20024;-67
2023/12/05 05:59:31;;;;;;;14.30;6.82;;;;;;;-3.43;86.54;101511.69;5092259;28;20499;-67
2023/12/05 06:01:56;;;;;;;12.63;7.05;;;;;;;-3.45;86.31;101512.72;5092263;28;20056;-67
2023/12/05 06:04:21;;;;;;;12.88;6.63;;;;;;;-3.38;86.28;101516.66;5091608;28;20024;-67
2023/12/05 06:06:47;;;;;;;16.80;6.72;;;;;;;-3.20;85.63;101510.31;5091474;28;20020;-67
2023/12/05 06:09:12;;;;;;;17.27;6.85;;;;;;;-3.35;85.84;101511.22;5091781;28;20070;-67
2023/12/05 06:11:38;;;;;;;16.75;6.82;;;;;;;-3.23;85.34;101522.81;5091266;28;20034;-67
2023/12/05 06:14:04;;;;;;;15.50;6.70;;;;;;;-3.13;84.85;101516.03;5092103;28;20093;-67
2023/12/05 06:16:29;;;;;;;11.43;6.40;;;;;;;-3.49;85.48;101485.75;5090018;28;20623;-67
2023/12/05 06:18:55;;;;;;;14.43;7.20;;;;;;;-3.17;85.49;101514.53;5091759;28;20386;-67
2023/12/05 06:21:20;;;;;;;17.60;7.00;;;;;;;-3.07;85.15;101513.03;5090385;28;20054;-67
2023/12/05 06:23:45;;;;;;;17.95;7.47;;;;;;;-3.04;84.06;101515.50;5093557;28;20043;-67
2023/12/05 06:26:11;;;;;;;16.90;7.65;;;;;;;-2.83;83.54;101523.84;5091723;28;20035;-67
2023/12/05 06:28:36;;;;;;;17.27;7.30;;;;;;;-3.08;84.20;101522.72;5092963;28;20024;-67
2023/12/05 06:31:02;;;;;;;16.55;6.93;;;;;;;-2.99;83.70;101523.94;5092449;28;20051;-67
2023/12/05 06:33:27;;;;;;;16.13;6.93;;;;;;;-3.07;84.34;101516.50;5091490;28;20089;-67
2023/12/05 06:35:52;;;;;;;12.70;6.65;;;;;;;-3.08;84.50;101527.13;5091868;28;20413;-68
2023/12/05 06:38:18;;;;;;;12.15;6.47;;;;;;;-3.17;85.27;101525.06;5091124;28;20097;-67
2023/12/05 06:40:43;;;;;;;12.95;6.75;;;;;;;-3.28;86.38;101528.31;5093122;28;20020;-67
2023/12/05 06:43:08;;;;;;;14.82;7.38;;;;;;;-3.29;86.67;101520.53;5091868;28;20071;-69
2023/12/05 06:45:36;;;;;;;15.18;7.22;;;;;;;-3.17;85.78;101536.44;5074187;28;20057;-68
2023/12/05 06:48:02;;;;;;;14.05;6.80;;;;;;;-3.19;86.91;101530.41;5075491;28;20510;-67
2023/12/05 06:50:27;;;;;;;18.13;9.48;;;;;;;-3.10;87.36;101529.03;5090678;28;20127;-67
2023/12/05 06:52:57;;;;;;;14.32;7.25;;;;;;;-3.27;88.37;101529.19;5090978;28;20119;-67
2023/12/05 06:55:23;;;;;;;19.45;9.52;;;;;;;-3.06;88.81;101538.41;5090590;28;20032;-67
2023/12/05 06:57:48;;;;;;;18.27;8.27;;;;;;;-2.89;87.38;101540.03;5091678;28;20119;-67
2023/12/05 07:00:14;;;;;;;17.38;9.20;;;;;;;-2.77;86.99;101536.63;5092737;28;20059;-68
2023/12/05 07:02:39;;;;;;;20.58;9.32;;;;;;;-2.92;86.99;101541.03;5091944;28;20028;-68
2023/12/05 07:05:05;;;;;;;15.02;7.68;;;;;;;-3.24;87.79;101515.84;5090159;28;20024;-67
2023/12/05 07:07:30;;;;;;;17.80;8.80;;;;;;;-3.11;88.24;101545.75;5090565;28;20031;-68
2023/12/05 07:09:56;;;;;;;25.45;9.82;;;;;;;-3.18;88.03;101537.38;5090591;28;20016;-68
2023/12/05 07:12:21;;;;;;;17.73;9.38;;;;;;;-3.02;87.66;101545.19;5090055;28;20102;-67
2023/12/05 07:14:46;;;;;;;15.05;8.15;;;;;;;-2.99;87.76;101545.00;5090639;28;20130;-68
2023/12/05 07:17:12;;;;;;;16.02;8.45;;;;;;;-3.00;87.64;101547.75;5088937;28;20042;-67
2023/12/05 07:19:37;;;;;;;15.32;7.40;;;;;;;-3.08;88.55;101545.56;5090421;28;20064;-67
2023/12/05 07:22:03;;;;;;;14.65;6.93;;;;;;;-3.05;87.89;101550.63;5092144;28;20028;-68
2023/12/05 07:24:28;;;;;;;14.85;7.95;;;;;;;-3.04;88.16;101556.78;5073608;28;20474;-68
2023/12/05 07:26:54;;;;;;;14.05;7.70;;;;;;;-2.99;87.59;101549.41;5090695;28;20084;-67
2023/12/05 07:29:19;;;;;;;12.82;7.10;;;;;;;-2.96;87.70;101554.50;5090684;28;20043;-68
2023/12/05 07:31:46;;;;;;;14.15;8.13;;;;;;;-3.00;86.77;101558.28;5091538;28;20038;-67
2023/12/05 07:34:11;;;;;;;20.00;8.02;;;;;;;-2.98;86.83;101553.75;5092125;28;20020;-68
2023/12/05 07:36:41;;;;;;;13.40;7.03;;;;;;;-2.86;86.27;101555.63;5090189;28;20039;-67
2023/12/05 07:39:06;;;;;;;13.50;6.65;;;;;;;-2.80;85.73;101557.06;5091718;28;20052;-68
2023/12/05 07:41:32;;;;;;;12.30;6.97;;;;;;;-2.87;86.04;101554.78;5090383;28;20055;-67
2023/12/05 07:43:58;;;;;;;16.52;7.82;;;;;;;-2.64;85.84;101565.69;5090703;28;20047;-68
2023/12/05 07:46:23;;;;;;;14.15;7.35;;;;;;;-2.51;85.05;101565.78;5090107;28;20024;-67
2023/12/05 07:48:49;;;;;;;12.23;7.10;;;;;;;-2.61;85.18;101565.50;5090744;28;20054;-68
2023/12/05 07:51:18;;;;;;;12.35;7.45;;;;;;;-2.86;85.73;101545.94;5090377;28;20474;-67
2023/12/05 07:53:45;;;;;;;16.58;7.95;;;;;;;-2.61;85.57;101568.16;5089868;28;20028;-68
2023/12/05 07:56:10;;;;;;;15.90;7.60;;;;;;;-2.60;85.30;101554.03;5090343;28;20063;-67
2023/12/05 07:58:36;;;;;;;17.45;8.02;;;;;;;-2.67;85.28;101532.47;5091048;28;20078;-68
2023/12/05 08:01:01;;;;;;;12.77;7.22;;;;;;;-2.39;85.45;101580.81;5091312;28;20024;-68
2023/12/05 08:03:28;;;;;;;19.15;7.50;;;;;;;-2.33;85.68;101582.22;5090994;28;20064;-68
2023/12/05 08:05:54;;;;;;;16.95;8.77;;;;;;;-2.44;86.44;101578.47;5090887;28;20103;-67
2023/12/05 08:08:20;;;;;;;16.10;8.02;;;;;;;-2.37;86.72;101581.56;5072301;28;20684;-68
2023/12/05 08:10:45;;;;;;;17.77;8.20;;;;;;;-2.41;86.78;101580.09;5091041;28;20032;-68
2023/12/05 08:13:10;;;;;;;14.77;7.35;;;;;;;-2.36;86.60;101592.00;5090116;28;20031;-68
2023/12/05 08:15:36;;;;;;;15.68;8.02;;;;;;;-2.33;86.87;101585.69;5091250;28;20020;-67
2023/12/05 08:18:01;;;;;;;14.30;7.75;;;;;;;-2.34;87.08;101583.19;5091636;28;20024;-67
2023/12/05 08:20:27;;;;;;;17.23;7.15;;;;;;;-2.32;87.21;101581.28;5091026;28;20398;-68
2023/12/05 08:22:52;;;;;;;15.43;8.40;;;;;;;-2.29;88.56;101581.06;5090572;28;20053;-68
2023/12/05 08:25:17;;;;;;;16.50;7.32;;;;;;;-2.23;88.03;101581.53;5090036;28;20509;-68
2023/12/05 08:27:43;;;;;;;17.13;7.63;;;;;;;-2.23;87.91;101585.97;5091059;28;20020;-67
2023/12/05 08:30:08;;;;;;;17.15;7.75;;;;;;;-2.28;88.30;101588.06;5090812;28;20508;-68
2023/12/05 08:32:34;;;;;;;15.02;7.90;;;;;;;-2.07;87.78;101591.13;5090696;28;20440;-68
2023/12/05 08:34:59;;;;;;;13.70;6.75;;;;;;;-2.30;88.38;101592.56;5091031;28;20509;-68
2023/12/05 08:37:25;;;;;;;15.32;6.78;;;;;;;-2.21;88.15;101594.63;5089073;28;20055;-68
2023/12/05 08:39:50;;;;;;;13.10;6.05;;;;;;;-2.46;89.38;101593.53;5091432;28;20106;-67
2023/12/05 08:42:15;;;;;;;13.80;6.32;;;;;;;-2.26;88.90;101596.72;5090741;28;20140;-68
2023/12/05 08:44:42;;;;;;;16.77;7.18;;;;;;;-2.06;88.20;101601.56;5090658;28;20217;-67
2023/12/05 08:47:08;;;;;;;19.83;7.60;;;;;;;-2.00;87.09;101587.97;5089557;28;20038;-68
2023/12/05 08:49:33;;;;;;;12.82;7.03;;;;;;;-1.97;86.44;101600.97;5089148;28;20032;-68
2023/12/05 08:51:59;;;;;;;13.02;7.60;;;;;;;-2.01;86.24;101603.91;5090448;28;20016;-68
2023/12/05 08:54:24;;;;;;;15.30;6.25;;;;;;;-2.26;86.97;101597.53;5090571;28;20105;-68
2023/12/05 08:56:50;;;;;;;14.52;5.32;;;;;;;-2.40;87.77;101602.84;5089580;28;20038;-68
2023/12/05 08:59:16;;;;;;;9.95;6.43;;;;;;;-2.29;87.59;101594.25;5088361;28;20113;-68
2023/12/05 09:01:41;;;;;;;11.73;7.20;;;;;;;-2.35;88.03;101595.50;5090325;28;20036;-68
2023/12/05 09:04:07;;;;;;;34.72;19.17;;;;;;;-2.44;88.58;101599.56;5090188;28;20028;-67
2023/12/05 09:06:33;;;;;;;10.85;6.55;;;;;;;-2.41;87.90;101575.66;5088854;28;20107;-68
2023/12/05 09:08:58;;;;;;;13.23;6.30;;;;;;;-2.18;87.51;101603.19;5072145;28;20103;-68
2023/12/05 09:11:24;;;;;;;16.40;8.40;;;;;;;-2.13;86.92;101597.63;5089626;28;20048;-67
2023/12/05 09:13:49;;;;;;;11.57;6.85;;;;;;;-2.36;87.19;101583.25;5089792;28;20036;-67
2023/12/05 09:16:15;;;;;;;12.30;6.07;;;;;;;-2.17;87.52;101602.25;5090089;28;20499;-68
2023/12/05 09:18:40;;;;;;;16.77;8.23;;;;;;;-1.96;87.22;101592.09;5089663;28;20024;-67
2023/12/05 09:21:06;;;;;;;26.88;13.75;;;;;;;-2.18;87.66;101595.28;5090305;28;20597;-68
2023/12/05 09:23:32;;;;;;;21.35;12.82;;;;;;;-2.34;89.37;101584.03;5089144;28;20136;-68
2023/12/05 09:25:57;;;;;;;14.75;8.55;;;;;;;-2.02;88.75;101597.81;5088871;28;20036;-68
2023/12/05 09:28:22;;;;;;;16.60;9.73;;;;;;;-1.93;89.29;101604.25;5089161;28;20028;-68
2023/12/05 09:30:48;;;;;;;15.70;8.60;;;;;;;-1.78;88.97;101599.78;5090500;28;20019;-67
2023/12/05 09:33:13;;;;;;;12.35;7.03;;;;;;;-1.71;88.54;101598.44;5090203;28;20412;-68
2023/12/05 09:35:38;;;;;;;10.63;5.60;;;;;;;-1.95;89.38;101606.16;5089365;28;20502;-68
2023/12/05 09:38:04;;;;;;;11.93;6.50;;;;;;;-1.74;88.98;101609.19;5072051;28;20028;-68
2023/12/05 09:40:31;;;;;;;8.35;4.85;;;;;;;-1.83;88.77;101610.63;5088676;28;20037;-68
2023/12/05 09:42:59;;;;;;;10.55;5.90;;;;;;;-1.80;89.25;101612.22;5072393;28;20056;-68
2023/12/05 09:45:28;;;;;;;13.85;7.32;;;;;;;-1.83;89.56;101605.34;5088944;28;20071;-68
2023/12/05 09:48:00;;;;;;;11.40;6.05;;;;;;;-1.81;89.56;101614.03;5089784;28;20493;-68
2023/12/05 09:50:27;;;;;;;12.52;6.80;;;;;;;-1.60;89.66;101618.84;5088608;28;20035;-67
2023/12/05 09:52:55;;;;;;;14.18;5.97;;;;;;;-1.69;88.53;101609.72;5089586;28;20111;-67
2023/12/05 09:55:21;;;;;;;11.95;6.22;;;;;;;-1.87;90.24;101614.41;5089811;28;20090;-68
2023/12/05 09:57:47;;;;;;;10.52;5.50;;;;;;;-1.68;88.85;101608.81;5088369;28;20517;-67
2023/12/05 10:00:13;;;;;;;10.45;5.22;;;;;;;-1.90;90.09;101607.53;5089484;28;20121;-68
2023/12/05 10:02:40;;;;;;;13.50;6.10;;;;;;;-1.76;90.14;101600.53;5089394;28;20032;-68
2023/12/05 10:05:11;;;;;;;11.57;6.72;;;;;;;-1.49;90.01;101614.56;5088476;28;20024;-68
2023/12/05 10:07:37;;;;;;;13.07;6.80;;;;;;;-1.82;90.02;101577.19;5089804;28;20032;-69
2023/12/05 10:10:04;;;;;;;11.75;6.55;;;;;;;-1.42;89.33;101615.00;5088353;28;20571;-68
2023/12/05 10:12:31;;;;;;;12.77;7.00;;;;;;;-1.44;89.17;101611.63;5090684;28;20039;-68
2023/12/05 10:14:56;;;;;;;10.55;6.53;;;;;;;-1.50;89.53;101607.56;5093518;28;20036;-68
2023/12/05 10:17:22;;;;;;;13.07;6.47;;;;;;;-1.37;89.82;101612.91;5093301;28;20479;-68
2023/12/05 10:19:47;;;;;;;9.25;5.88;;;;;;;-1.43;89.94;101608.00;5092440;28;20097;-68
2023/12/05 10:22:14;;;;;;;9.63;5.78;;;;;;;-1.23;89.87;101609.31;5092422;28;20040;-68
2023/12/05 10:24:42;;;;;;;14.35;6.88;;;;;;;-1.15;89.33;101611.47;5093171;28;20035;-68
2023/12/05 10:27:07;;;;;;;10.20;5.53;;;;;;;-1.67;89.71;101536.59;5092632;28;20406;-68
2023/12/05 10:29:38;;;;;;;11.20;6.65;;;;;;;-1.15;89.49;101601.75;5092099;28;20022;-68
2023/12/05 10:32:05;;;;;;;10.88;5.85;;;;;;;-1.13;89.77;101601.63;5091854;28;20134;-68
2023/12/05 10:34:30;;;;;;;13.40;6.97;;;;;;;-1.06;89.96;101606.41;5091527;28;20032;-68
2023/12/05 10:37:03;;;;;;;11.40;7.40;;;;;;;-0.91;89.87;101593.09;5093082;28;20548;-68
2023/12/05 10:39:35;;;;;;;24.83;12.57;;;;;;;-0.85;89.50;101590.03;5092231;28;20032;-68
2023/12/05 10:42:01;;;;;;;45.28;22.63;;;;;;;-0.77;89.09;101585.91;5093042;28;20028;-68
2023/12/05 10:44:26;;;;;;;59.65;31.10;;;;;;;-0.62;89.03;101575.22;5092892;28;20034;-68
2023/12/05 10:46:56;;;;;;;15.30;7.65;;;;;;;-0.63;89.47;101592.00;5092444;28;20024;-68
2023/12/05 10:49:22;;;;;;;13.07;7.75;;;;;;;-0.77;90.13;101593.81;5092847;28;20074;-69
2023/12/05 10:51:48;;;;;;;15.57;8.15;;;;;;;-0.74;90.74;101600.69;5090970;28;20114;-68
2023/12/05 10:54:13;;;;;;;10.85;6.82;;;;;;;-0.71;91.08;101600.50;5090790;28;20028;-68
2023/12/05 10:56:38;;;;;;;16.40;6.55;;;;;;;-0.62;90.94;101594.56;5074288;28;20513;-68
2023/12/05 10:59:06;;;;;;;12.63;6.13;;;;;;;-0.47;90.33;101596.13;5092599;28;20460;-68
2023/12/05 11:01:34;;;;;;;11.70;5.97;;;;;;;-0.81;90.77;101583.59;5090960;28;20031;-68
2023/12/05 11:04:03;;;;;;;14.85;6.57;;;;;;;-0.63;90.66;101594.66;5092723;28;20024;-68
2023/12/05 11:06:28;;;;;;;9.93;5.82;;;;;;;-0.64;90.58;101596.47;5092507;28;20035;-68
2023/12/05 11:08:54;;;;;;;14.35;6.57;;;;;;;-0.69;90.76;101589.81;5092411;28;20028;-69
2023/12/05 11:11:21;;;;;;;16.17;6.68;;;;;;;-0.63;90.67;101587.59;5092414;28;20978;-68